Wisconsin Rapids, Wisconsin
Current Conditions -  °F | °C
As of 9:54 PM on Tuesday 21 Oct 2014 (Local Time) from KISW Reporting Station
Clear Clear  
Wind Chill: 27°   Ceiling: Unl
Heat Index: 32°   Visibility: 10mi
Dew Point: 31°   Wind: 5mph
Humidity: 96%   Direction: 140°SE
Pressure: 30.28"   Gusts: NA
Location:  44.39°N, 89.82°W
Report Text: KISW 220254Z AUTO 14004KT 10SM CLR 00/M01 A3028 RMK AO2 SLP264 T00001006 52013
Loading
Personal Weather Stations






























Interactive Weather Map New forecast layout! Learn more

10-Day Weather Forecast

Advertisements
Track Severe Weather on mobile